• Join FlightAware (Why Join?)
  • Login
  • US Flag 
01:17AM EDT


 

Airport Tracker/Info


-or-


 

Live Flight TrackerFlight Track Log ✈ N172AV ✈ 15-Jul-2013 ✈ KBDR - KMMU

Flight Track Log - Related Links

Times and Time Zones

All times are in EDT time to prevent confusion due to time zone crossing. See the N172AV flight status page for this flight to view local times or setup timezone preferences in your user account.

Time Position Orientation Groundspeed Altitude Reporting Facility
EDT Latitude Longitude Course Direction KTS MPH feet Rate Location/Type
08:38PM 41.1833 -73.2000 304° West 84 97 1,700  Level New York TRACON
08:39PM 41.1833 -73.2167 270° West 66 76 2,400 540 Climbing New York TRACON
08:41PM 41.2167 -73.2667 312° West 75 86 3,400 420 Climbing New York TRACON
08:42PM 41.2167 -73.2833 270° West 78 90 3,800 300 Climbing New York TRACON
08:43PM 41.2333 -73.3000 323° Northwest 89 102 4,100 60 Climbing New York TRACON
08:44PM 41.2500 -73.3333 304° West 111 128 4,000 -60 Descending New York TRACON
08:45PM 41.2500 -73.3833 270° West 97 112 4,000  Level New York TRACON
08:46PM 41.2500 -73.4167 270° West 103 119 4,000  Level New York TRACON
08:47PM 41.2667 -73.4500 304° West 102 117 4,100  Climbing New York TRACON
08:48PM 41.2667 -73.4833 270° West 101 116 4,000  Descending New York TRACON
08:49PM 41.2667 -73.5333 270° West 112 129 4,100  Climbing New York TRACON
08:50PM 41.2500 -73.5667 236° Southwest 119 137 4,100 -60 Level New York TRACON
08:51PM 41.2500 -73.6000 270° West 107 123 4,000  Descending New York TRACON
08:52PM 41.2667 -73.6333 304° West 103 119 4,100  Climbing New York TRACON
08:53PM 41.2667 -73.6667 270° West 108 124 4,000  Descending New York TRACON
08:54PM 41.2667 -73.7167 270° West 108 124 4,100  Climbing New York TRACON
08:55PM 41.2667 -73.7500 270° West 112 129 4,000  Descending New York TRACON
08:56PM 41.2667 -73.8000 270° West 107 123 4,100  Climbing New York TRACON
08:57PM 41.2667 -73.8333 270° West 109 125 4,000  Descending New York TRACON
08:58PM 41.2667 -73.8667 270° West 110 127 4,100  Climbing New York TRACON
08:59PM 41.2500 -73.9167 246° West 115 132 4,000  Descending New York TRACON
09:00PM 41.2500 -73.9667 270° West 121 139 4,100  Climbing New York TRACON
09:01PM 41.2500 -74.0000 270° West 115 132 4,000  Descending New York TRACON
09:02PM 41.2333 -74.0333 236° Southwest 113 130 4,100  Climbing New York TRACON
09:03PM 41.2167 -74.0667 236° Southwest 135 155 4,100 -60 Level New York TRACON
09:04PM 41.1833 -74.0667 180° South 136 157 4,000 -60 Descending New York TRACON
09:06PM 41.1167 -74.1167 209° Southwest 135 155 4,000 -180 Level New York TRACON
09:07PM 41.0833 -74.1333 201° Southwest 135 155 3,500 -360 Descending New York TRACON
09:09PM 41.1172 -74.1587 331° Northwest  Level FlightAware Approximate
09:11PM 40.9667 -74.2500 306° West 135 155 2,400  Level New York TRACON
09:12PM 40.9333 -74.2833 217° Southwest 142 163 2,000 -180 Descending New York TRACON
09:14PM 40.8833 -74.3333 217° Southwest 121 139 2,000 -240 Level New York TRACON
09:15PM 40.8500 -74.3500 207° Southwest 114 131 1,300 -600 Descending New York TRACON
09:16PM 40.9405 -74.3015 230° Southwest  Level Estimated
09:16PM 40.8448 -74.3590 207° Southwest  Level FlightAware Approximate
09:16PM 40.8333 -74.3833 210° Southwest 94 108 900  Level New York TRACON
09:17PM 40.9578 -74.3332 306° West  Level FlightAware Approximate
09:18PM 40.7840 -74.3995 210° Southwest  Level FlightAware Approximate
09:20PM 40.7993 -74.4149 163° South  Level Estimated
09:27PM 40.7993 -74.4149 163° South  Level Estimated
09:28PM 40.7993 -74.4149 163° South  Level Estimated
09:29PM 40.7993 -74.4149 163° South  Level Estimated